Impacts TAF Board INFO
FOR SITUATIONAL AWARENESS. NOT TO BE USED FOR FLIGHT PLANNING PURPOSES.
IDs:

KDEN - Denver Intl, CO, US

Issued at 2334 UTC 30 Apr 2017
Updated at 0022 UTC 01 May 2017
Potential Impact None Slight Moderate High
Time2353Z 01/01Z 01/02Z 01/03Z 01/04Z 01/05Z 01/06Z 01/07Z 01/08Z 01/09Z 01/10Z 01/11Z 01/12Z 01/13Z>>
Type OBS PRVL PRVL PRVL PRVL PRVL PRVL PRVL PRVL PRVL PRVL PRVL PRVL PRVL
VIS 10 >6 >6 >6 >6 >6 >6 >6 >6 >6 >6 >6 >6 >6
CIG -- -- -- -- -- -- -- 100 100 100 100 100 100 100
Cover SCT SCT SCT SCT SCT SCT SCT BKN BKN BKN BKN BKN BKN BKN
FltCat VFR VFR VFR VFR VFR VFR VFR VFR VFR VFR VFR VFR VFR VFR
WX -- -- -- -- -- -- -- -- -- -- -- -- -- --
WDir 360 340 340 340 340 340 340 230 230 230 230 230 230 230
WSpd 27 14 14 14 14 14 14 7 7 7 7 7 7 7
WGst 36 -- -- -- -- -- -- -- -- -- -- -- -- --

Raw TAF
KDEN 302334Z 0100/0206 35022G32KT P6SM FEW100 SCT220
  FM010100 34014KT P6SM SCT100 SCT200
  FM010700 23007KT P6SM BKN100 BKN180
  FM011600 31010KT P6SM FEW090 SCT180
  FM011800 35012KT P6SM SCT060 BKN150
  FM020200 08007KT P6SM SCT150


Raw METAR
KDEN 302353Z 36027G36KT 10SM FEW100 FEW140 SCT220 15/M08 A2982 RMK AO2 PK WND 31039/2306 SLP055 T01501083 10156 20078 56006 $
KDEN 302253Z 34026G35KT 10SM FEW100 SCT220 16/M08 A2982 RMK AO2 PK WND 33040/2200 SLP053 T01561083 $
KDEN 302153Z 34027G37KT 10SM FEW100 FEW220 16/M07 A2983 RMK AO2 PK WND 34038/2125 SLP058 T01561072 $

METAR Board
Radar Display
Forecast Discussion

FOR SITUATIONAL AWARENESS. NOT TO BE USED FOR FLIGHT PLANNING PURPOSES.

Page loaded:  00:22 UTC  |   05:22 PM Pacific  |   06:22 PM Mountain  |   07:22 PM Central  |   08:22 PM Eastern

 

ADVISORIES

FORECASTS

FORECASTS

OBSERVATIONS

USER TOOLS

ABOUT US